createdAt,value
2023-02-16T00:00:51.577Z,36.08
2023-02-16T00:03:37.258Z,35.75
2023-02-16T00:06:23.576Z,35.67
2023-02-16T00:09:08.903Z,36.55
2023-02-16T00:12:12.807Z,36.40
2023-02-16T00:14:58.440Z,37.20
2023-02-16T00:17:43.943Z,38.28
2023-02-16T00:20:32.056Z,40.35
2023-02-16T00:23:17.453Z,37.05
2023-02-16T00:26:03.134Z,38.53
2023-02-16T00:28:54.036Z,40.80
2023-02-16T00:31:39.838Z,41.88
2023-02-16T00:34:40.243Z,49.17
2023-02-16T00:37:25.446Z,45.50
2023-02-16T00:40:14.310Z,40.50
2023-02-16T00:43:00.148Z,48.58
2023-02-16T00:45:45.209Z,48.30
2023-02-16T00:48:30.743Z,50.78
2023-02-16T00:51:25.479Z,52.95
2023-02-16T00:54:11.318Z,48.17
2023-02-16T00:56:57.191Z,48.70
2023-02-16T00:59:42.592Z,48.15
2023-02-16T01:02:28.986Z,45.38
2023-02-16T01:05:14.877Z,44.95
2023-02-16T01:08:19.962Z,45.30
2023-02-16T01:11:07.743Z,47.60
2023-02-16T01:13:54.738Z,55.33
2023-02-16T01:16:41.610Z,51.78
2023-02-16T01:19:27.402Z,51.45
2023-02-16T01:22:12.536Z,50.60
2023-02-16T01:24:57.908Z,48.72
2023-02-16T01:27:44.558Z,49.40
2023-02-16T01:30:31.865Z,51.42
2023-02-16T01:33:17.682Z,50.10
2023-02-16T01:36:04.781Z,51.10
2023-02-16T01:38:50.076Z,49.40
2023-02-16T01:41:53.930Z,50.65
2023-02-16T01:44:48.976Z,55.95
2023-02-16T01:48:05.245Z,53.35
2023-02-16T01:51:12.710Z,59.53
2023-02-16T01:54:40.814Z,53.88
2023-02-16T01:57:43.659Z,56.38
2023-02-16T02:00:53.053Z,55.40
2023-02-16T02:03:57.100Z,48.72
2023-02-16T02:06:42.346Z,51.75
2023-02-16T02:09:44.852Z,51.63
2023-02-16T02:15:24.603Z,52.03
2023-02-16T02:18:10.066Z,47.90
2023-02-16T02:21:28.543Z,45.88
2023-02-16T02:24:49.178Z,46.97
2023-02-16T02:27:40.865Z,47.85
2023-02-16T02:30:53.563Z,47.83
2023-02-16T02:33:50.942Z,48.90
2023-02-16T02:36:50.798Z,48.05
2023-02-16T02:39:39.545Z,48.80
2023-02-16T02:42:30.681Z,46.90
2023-02-16T02:45:27.846Z,44.15
2023-02-16T02:48:13.052Z,45.55
2023-02-16T02:51:26.626Z,50.35
2023-02-16T02:54:39.362Z,54.35
2023-02-16T02:57:53.390Z,56.22
2023-02-16T03:00:47.496Z,49.83
2023-02-16T03:03:43.504Z,49.78
2023-02-16T03:06:34.522Z,50.78
2023-02-16T03:09:21.087Z,47.95
2023-02-16T03:12:27.152Z,46.33
2023-02-16T03:15:14.318Z,53.42
2023-02-16T03:18:19.695Z,48.15
2023-02-16T03:21:24.053Z,46.40
2023-02-16T03:24:31.453Z,49.17
2023-02-16T03:27:50.398Z,48.00
2023-02-16T03:30:36.176Z,53.08
2023-02-16T03:33:23.458Z,49.08
2023-02-16T03:36:09.766Z,52.55
2023-02-16T03:38:56.958Z,49.50
2023-02-16T03:41:46.654Z,48.45
2023-02-16T03:44:31.751Z,48.15
2023-02-16T03:47:17.196Z,44.47
2023-02-16T03:50:02.828Z,45.42
2023-02-16T03:52:48.433Z,46.08
2023-02-16T03:55:45.431Z,48.47
2023-02-16T03:58:30.597Z,48.70
2023-02-16T04:01:16.023Z,45.83
2023-02-16T04:04:01.498Z,45.55
2023-02-16T04:06:46.853Z,40.83
2023-02-16T04:09:32.175Z,43.60
2023-02-16T04:12:36.055Z,46.72
2023-02-16T04:15:24.280Z,45.25
2023-02-16T04:18:09.633Z,43.92
2023-02-16T04:20:55.270Z,43.38
2023-02-16T04:23:40.795Z,41.60
2023-02-16T04:26:26.203Z,44.92
2023-02-16T04:29:11.558Z,43.08
2023-02-16T04:31:57.371Z,41.65
2023-02-16T04:34:42.868Z,47.05
2023-02-16T04:37:28.102Z,44.22
2023-02-16T04:40:15.643Z,47.90
2023-02-16T04:43:00.891Z,46.63
2023-02-16T04:45:46.286Z,41.67
2023-02-16T04:48:31.721Z,47.22
2023-02-16T04:51:17.267Z,42.60
2023-02-16T04:54:02.380Z,43.47
2023-02-16T04:56:48.595Z,42.10
2023-02-16T04:59:33.727Z,42.88
2023-02-16T05:02:19.300Z,41.13
2023-02-16T05:05:04.721Z,41.42
2023-02-16T05:07:50.061Z,40.47
2023-02-16T05:10:35.653Z,42.58
2023-02-16T05:13:41.186Z,42.10
2023-02-16T05:16:27.551Z,41.45
2023-02-16T05:19:13.161Z,39.38
2023-02-16T05:21:59.657Z,42.85
2023-02-16T05:24:45.788Z,39.53
2023-02-16T05:27:31.804Z,40.80
2023-02-16T05:30:17.387Z,38.28
2023-02-16T05:33:02.925Z,43.17
2023-02-16T05:35:48.365Z,39.83
2023-02-16T05:38:33.986Z,41.17
2023-02-16T05:41:25.341Z,40.72
2023-02-16T05:44:11.577Z,40.83
2023-02-16T05:46:56.861Z,46.70
2023-02-16T05:49:42.358Z,42.03
2023-02-16T05:52:27.770Z,41.67
2023-02-16T05:55:13.226Z,44.35
2023-02-16T05:57:58.511Z,41.25
2023-02-16T06:00:43.876Z,43.58
2023-02-16T06:03:29.286Z,42.05
2023-02-16T06:06:14.591Z,40.00
2023-02-16T06:09:01.296Z,39.45
2023-02-16T06:11:46.718Z,38.80
2023-02-16T06:14:32.486Z,38.15
2023-02-16T06:17:18.277Z,34.72
2023-02-16T06:20:04.990Z,36.63
2023-02-16T06:22:50.398Z,39.58
2023-02-16T06:25:35.947Z,41.92
2023-02-16T06:28:21.368Z,35.30
2023-02-16T06:31:07.593Z,35.15
2023-02-16T06:33:54.146Z,35.65
2023-02-16T06:36:42.337Z,35.10
2023-02-16T06:39:28.038Z,34.45
2023-02-16T06:42:13.450Z,35.67
2023-02-16T06:44:58.941Z,38.03
2023-02-16T06:47:44.346Z,35.17
2023-02-16T06:50:29.806Z,38.63
2023-02-16T06:53:15.405Z,38.90
2023-02-16T06:56:00.746Z,37.05
2023-02-16T06:58:46.188Z,39.55
2023-02-16T07:01:31.612Z,37.67
2023-02-16T07:04:16.960Z,36.53
2023-02-16T07:07:02.684Z,37.75
2023-02-16T07:09:48.085Z,39.60
2023-02-16T07:12:33.707Z,37.53
2023-02-16T07:15:18.806Z,40.28
2023-02-16T07:18:04.278Z,38.17
2023-02-16T07:20:49.729Z,39.03
2023-02-16T07:23:34.896Z,41.40
2023-02-16T07:26:20.759Z,36.25
2023-02-16T07:29:05.945Z,36.30
2023-02-16T07:31:51.425Z,37.75
2023-02-16T07:34:36.656Z,34.83
2023-02-16T07:37:22.142Z,38.08
2023-02-16T07:40:08.439Z,35.00
2023-02-16T07:42:54.155Z,37.28
2023-02-16T07:45:39.763Z,35.30
2023-02-16T07:48:25.075Z,38.70
2023-02-16T07:51:10.568Z,40.15
2023-02-16T07:53:56.819Z,43.30
2023-02-16T07:56:41.814Z,46.22
2023-02-16T07:59:27.617Z,41.42
2023-02-16T08:02:20.619Z,41.70
2023-02-16T08:05:06.554Z,41.53
2023-02-16T08:07:51.919Z,38.85
2023-02-16T08:10:37.534Z,38.15
2023-02-16T08:13:23.508Z,42.42
2023-02-16T08:16:25.738Z,35.90
2023-02-16T08:19:13.074Z,40.47
2023-02-16T08:21:59.841Z,38.25
2023-02-16T08:24:45.424Z,37.10
2023-02-16T08:27:31.093Z,36.63
2023-02-16T08:30:18.308Z,34.83
2023-02-16T08:33:03.950Z,36.63
2023-02-16T08:35:49.334Z,37.33
2023-02-16T08:38:34.923Z,37.67
2023-02-16T08:41:22.400Z,35.35
2023-02-16T08:44:09.475Z,38.83
2023-02-16T08:46:56.550Z,35.80
2023-02-16T08:49:44.228Z,41.90
2023-02-16T08:52:29.786Z,38.53
2023-02-16T08:55:15.382Z,49.85
2023-02-16T08:58:01.056Z,38.20
2023-02-16T09:00:46.348Z,37.72
2023-02-16T09:03:32.600Z,34.97
2023-02-16T09:06:22.594Z,35.95
2023-02-16T09:09:08.733Z,35.20
2023-02-16T09:11:54.400Z,35.78
2023-02-16T09:14:40.523Z,36.40
2023-02-16T09:17:27.028Z,33.53
2023-02-16T09:20:12.832Z,35.70
2023-02-16T09:22:58.080Z,35.58
2023-02-16T09:25:43.406Z,35.40
2023-02-16T09:28:30.681Z,38.53
2023-02-16T09:31:28.915Z,41.08
2023-02-16T09:34:21.574Z,40.45
2023-02-16T09:37:07.317Z,42.08
2023-02-16T09:39:52.553Z,39.42
2023-02-16T09:43:12.509Z,41.72
2023-02-16T09:45:58.903Z,54.42
2023-02-16T09:48:48.574Z,47.28
2023-02-16T09:51:41.048Z,42.72
2023-02-16T09:54:44.690Z,40.55
2023-02-16T09:57:41.916Z,41.53
2023-02-16T10:00:53.753Z,42.63
2023-02-16T10:04:07.154Z,39.80
2023-02-16T10:09:47.199Z,41.50
2023-02-16T10:12:39.543Z,39.13
2023-02-16T10:15:27.778Z,38.13
2023-02-16T10:18:33.347Z,38.50
2023-02-16T10:21:27.421Z,40.13
2023-02-16T10:24:14.909Z,38.38
2023-02-16T10:27:07.452Z,39.88
2023-02-16T10:29:54.148Z,42.40
2023-02-16T10:32:54.478Z,35.45
2023-02-16T10:35:48.481Z,36.58
2023-02-16T10:38:48.846Z,36.00
2023-02-16T10:41:43.538Z,35.35
2023-02-16T10:44:40.184Z,34.67
2023-02-16T10:47:40.884Z,33.90
2023-02-16T10:50:42.888Z,35.60
2023-02-16T10:53:57.114Z,35.30
2023-02-16T10:56:54.171Z,35.35
2023-02-16T10:59:42.404Z,38.75
2023-02-16T11:02:42.260Z,43.78
2023-02-16T11:05:38.619Z,40.65
2023-02-16T11:08:25.685Z,40.47
2023-02-16T11:11:11.153Z,38.70
2023-02-16T11:14:02.872Z,38.25
2023-02-16T11:16:49.294Z,37.33
2023-02-16T11:19:35.322Z,37.28
2023-02-16T11:22:41.390Z,35.30
2023-02-16T11:25:27.373Z,35.40
2023-02-16T11:28:25.063Z,36.25
2023-02-16T11:31:18.800Z,36.15
2023-02-16T11:34:08.404Z,39.72
2023-02-16T11:37:06.615Z,39.75
2023-02-16T11:40:02.597Z,38.28
2023-02-16T11:42:53.476Z,45.83
2023-02-16T11:45:38.890Z,39.83
2023-02-16T11:48:31.234Z,40.33
2023-02-16T11:51:30.540Z,45.08
2023-02-16T11:54:18.614Z,40.05
2023-02-16T11:57:06.722Z,36.40
2023-02-16T11:59:52.076Z,37.20
2023-02-16T12:03:11.368Z,38.88
2023-02-16T12:06:30.898Z,35.17
2023-02-16T12:09:53.649Z,34.95
2023-02-16T12:13:03.898Z,36.28
2023-02-16T12:16:14.981Z,33.38
2023-02-16T12:19:33.594Z,37.10
2023-02-16T12:22:49.132Z,36.35
2023-02-16T12:25:40.745Z,33.85
2023-02-16T12:28:57.198Z,32.73
2023-02-16T12:31:57.681Z,28.83
2023-02-16T12:34:58.356Z,32.83
2023-02-16T12:38:59.484Z,33.95
2023-02-16T12:42:14.304Z,36.53
2023-02-16T12:45:10.772Z,29.55
2023-02-16T12:48:04.930Z,30.58
2023-02-16T12:50:52.700Z,27.10
2023-02-16T12:53:56.255Z,29.00
2023-02-16T12:56:50.224Z,28.52
2023-02-16T12:59:50.805Z,27.45
2023-02-16T13:02:40.620Z,28.35
2023-02-16T13:05:32.277Z,24.20
2023-02-16T13:08:39.957Z,28.63
2023-02-16T13:11:32.591Z,33.40
2023-02-16T13:14:22.013Z,26.08
2023-02-16T13:17:28.339Z,23.67
2023-02-16T13:20:16.699Z,25.58
2023-02-16T13:23:14.255Z,23.55
2023-02-16T13:26:14.647Z,26.33
2023-02-16T13:29:23.142Z,22.60
2023-02-16T13:32:41.796Z,23.55
2023-02-16T13:36:00.809Z,20.05
2023-02-16T13:39:18.014Z,23.30
2023-02-16T13:42:30.045Z,25.00
2023-02-16T13:45:22.814Z,21.52
2023-02-16T13:48:22.125Z,23.92
2023-02-16T13:51:14.914Z,22.52
2023-02-16T13:54:02.900Z,24.52
2023-02-16T13:56:48.455Z,23.48
2023-02-16T13:59:36.958Z,27.80
2023-02-16T14:02:55.708Z,21.05
2023-02-16T14:05:43.750Z,23.00
2023-02-16T14:08:30.764Z,20.52
2023-02-16T14:11:16.587Z,21.55
2023-02-16T14:14:02.397Z,21.05
2023-02-16T14:16:48.002Z,22.15
2023-02-16T14:19:35.108Z,22.02
2023-02-16T14:22:37.685Z,20.30
2023-02-16T14:25:23.207Z,21.23
2023-02-16T14:28:35.144Z,19.80
2023-02-16T14:31:22.810Z,20.13
2023-02-16T14:34:17.676Z,17.40
2023-02-16T14:37:31.696Z,21.90
2023-02-16T14:40:21.135Z,21.13
2023-02-16T14:43:24.056Z,20.50
2023-02-16T14:46:27.400Z,20.13
2023-02-16T14:49:38.054Z,23.05
2023-02-16T14:52:23.478Z,22.50
2023-02-16T15:07:23.130Z,24.08
2023-02-16T15:10:14.288Z,22.45
2023-02-16T15:12:59.747Z,23.40
2023-02-16T15:15:48.584Z,23.77
2023-02-16T15:18:40.236Z,22.10
2023-02-16T15:21:28.429Z,20.55
2023-02-16T15:24:24.623Z,19.50
2023-02-16T15:27:21.346Z,18.60
2023-02-16T15:30:25.976Z,21.20
2023-02-16T15:33:26.849Z,21.40
2023-02-16T15:36:15.613Z,21.70
2023-02-16T15:39:43.646Z,21.58
2023-02-16T15:42:31.878Z,21.20
2023-02-16T15:45:47.842Z,21.70
2023-02-16T15:48:38.146Z,22.02
2023-02-16T15:51:32.570Z,21.90
2023-02-16T15:54:28.047Z,22.77
2023-02-16T15:57:28.260Z,22.20
2023-02-16T16:00:20.816Z,22.08
2023-02-16T16:03:09.498Z,19.77
2023-02-16T16:06:01.747Z,21.17
2023-02-16T16:11:33.178Z,25.23
2023-02-16T16:14:18.839Z,24.00
2023-02-16T16:17:05.787Z,26.92
2023-02-16T16:19:51.290Z,25.52
2023-02-16T16:22:42.831Z,26.30
2023-02-16T16:25:34.030Z,26.02
2023-02-16T16:28:27.969Z,25.85
2023-02-16T16:31:21.422Z,26.83
2023-02-16T16:34:10.215Z,34.17
2023-02-16T16:36:56.971Z,26.73
2023-02-16T16:39:42.442Z,27.15
2023-02-16T16:42:28.374Z,28.38
2023-02-16T16:45:19.976Z,30.65
2023-02-16T16:48:21.721Z,34.38
2023-02-16T16:51:16.053Z,28.65
2023-02-16T16:54:04.493Z,27.25
2023-02-16T16:56:49.860Z,26.45
2023-02-16T18:36:20.575Z,18.63
2023-02-16T18:39:07.114Z,17.75
2023-02-16T18:41:52.487Z,17.60
2023-02-16T18:44:37.777Z,16.25
2023-02-16T18:47:23.568Z,16.13
2023-02-16T18:50:09.671Z,15.23
2023-02-16T18:52:55.088Z,14.05
2023-02-16T18:55:40.348Z,13.07
2023-02-16T18:58:25.807Z,13.40
2023-02-16T19:01:37.780Z,15.18
2023-02-16T19:04:24.102Z,11.90
2023-02-16T19:07:09.386Z,11.05
2023-02-16T19:09:54.788Z,12.15
2023-02-16T19:12:41.244Z,11.27
2023-02-16T19:15:26.928Z,12.23
2023-02-16T19:18:12.384Z,12.45
2023-02-16T19:20:57.664Z,13.60
2023-02-16T19:23:43.265Z,12.60
2023-02-16T19:26:28.813Z,14.63
2023-02-16T19:29:14.322Z,13.18
2023-02-16T19:31:59.803Z,14.68
2023-02-16T19:34:45.378Z,15.98
2023-02-16T19:37:30.881Z,16.90
2023-02-16T19:40:16.427Z,18.23
2023-02-16T19:43:01.734Z,18.02
2023-02-16T19:45:47.139Z,18.42
2023-02-16T19:48:33.178Z,17.65
2023-02-16T19:51:18.553Z,17.27
2023-02-16T19:54:04.160Z,17.77
2023-02-16T19:56:49.717Z,17.27
2023-02-16T19:59:35.142Z,17.95
2023-02-16T20:02:20.685Z,18.23
2023-02-16T20:05:06.821Z,16.20
2023-02-16T20:07:51.878Z,18.75
2023-02-16T20:10:43.231Z,14.77
2023-02-16T20:13:28.845Z,15.07
2023-02-16T20:16:15.107Z,17.52
2023-02-16T20:19:00.342Z,17.17
2023-02-16T20:21:46.380Z,16.40
2023-02-16T20:24:31.963Z,16.95
2023-02-16T20:27:17.702Z,17.80
2023-02-16T20:30:06.412Z,16.20
2023-02-16T20:32:52.021Z,17.75
2023-02-16T20:35:37.410Z,18.38
2023-02-16T20:38:23.022Z,16.38
2023-02-16T20:41:08.619Z,17.98
2023-02-16T20:43:54.339Z,16.77
2023-02-16T20:46:40.498Z,15.95
2023-02-16T20:49:26.144Z,17.02
2023-02-16T20:52:11.640Z,17.20
2023-02-16T20:54:57.059Z,17.05
2023-02-16T20:57:42.296Z,16.92
2023-02-16T21:00:28.248Z,18.23
2023-02-16T21:03:15.619Z,18.48
2023-02-16T21:06:01.135Z,19.15
2023-02-16T21:08:46.982Z,18.58
2023-02-16T21:11:32.776Z,19.38
2023-02-16T21:14:18.214Z,19.30
2023-02-16T21:17:05.874Z,17.63
2023-02-16T21:19:51.428Z,18.52
2023-02-16T21:22:37.152Z,20.65
2023-02-16T21:25:22.373Z,21.20
2023-02-16T21:28:07.820Z,20.20
2023-02-16T21:30:53.837Z,23.60
2023-02-16T21:33:39.400Z,22.55
2023-02-16T21:36:26.191Z,21.45
2023-02-16T21:39:12.003Z,25.52
2023-02-16T21:41:57.410Z,23.52
2023-02-16T21:44:45.041Z,26.88
2023-02-16T21:47:48.999Z,25.92
2023-02-16T21:50:38.252Z,24.67
2023-02-16T21:53:23.305Z,27.02
2023-02-16T21:56:23.752Z,22.80
2023-02-16T21:59:12.027Z,24.85
2023-02-16T22:01:59.095Z,24.42
2023-02-16T22:04:44.555Z,22.58
2023-02-16T22:07:29.900Z,23.08
2023-02-16T22:10:15.286Z,24.88
2023-02-16T22:13:01.052Z,24.65
2023-02-16T22:15:46.654Z,24.92
2023-02-16T22:18:32.310Z,24.73
2023-02-16T22:21:17.677Z,20.73
2023-02-16T22:24:03.376Z,22.42
2023-02-16T22:26:50.325Z,26.77
2023-02-16T22:29:36.267Z,24.10
2023-02-16T22:32:21.529Z,21.33
2023-02-16T22:35:08.106Z,23.48
2023-02-16T22:37:53.414Z,20.65
2023-02-16T22:40:38.879Z,21.13
2023-02-16T22:43:24.204Z,22.58
2023-02-16T22:46:15.182Z,21.90
2023-02-16T22:49:01.719Z,22.23
2023-02-16T22:51:47.284Z,20.08
2023-02-16T22:54:32.721Z,18.67
2023-02-16T22:57:18.491Z,21.00
2023-02-16T23:00:13.051Z,17.95
2023-02-16T23:02:58.138Z,13.73
2023-02-16T23:05:43.770Z,15.73
2023-02-16T23:08:29.123Z,23.50
2023-02-16T23:11:14.389Z,17.40
2023-02-16T23:14:00.135Z,18.67
2023-02-16T23:16:47.843Z,20.38
2023-02-16T23:19:33.714Z,14.13
2023-02-16T23:22:18.842Z,14.68
2023-02-16T23:25:22.981Z,14.63
2023-02-16T23:28:08.090Z,16.98
2023-02-16T23:30:56.569Z,13.73
2023-02-16T23:33:42.192Z,14.45
2023-02-16T23:36:27.663Z,17.02
2023-02-16T23:39:18.083Z,14.32
2023-02-16T23:42:03.493Z,14.85
2023-02-16T23:44:48.887Z,13.02
2023-02-16T23:47:34.373Z,14.88
2023-02-16T23:50:20.014Z,18.42
2023-02-16T23:53:05.302Z,15.30
2023-02-16T23:56:02.327Z,19.90
2023-02-16T23:58:48.945Z,20.17
